Weather at West Caicos Airport

Public forecast

Using degrees Celsius for public forecast. Weather courtesy of forecast.io.

Closest aviation weather report (METAR) to West Caicos Airport

Report is more than 6 hours old.

Closest report is Providenciales International Airport, 12.1 nm (22.4 km) ENE. Retrieved 2022/01/16 01:00 UTC (10 hours ago):

MBPV 160100Z 06005KT 9999 SCT015 23/15 Q1017

Closest aviation forecast (TAF) to West Caicos Airport

Closest forecast is Providenciales International Airport, 12.1 nm (22.4 km) ENE. Retrieved 2022/01/16 06:21 UTC (4 hours ago):

TAF MBPV 160530Z 1606/1706 09010KT CAVOK